Terminal Aerodrome Forecast
Issued by NWS

Home | Current Version | Previous Version | Text Only | Print | Product List | Glossary On
Versions: 1 2 3 4 5 6 7 8 9 10 11 12 13 14 15 16 17 18 19 20 21 22 23 24 25
000
FTUS43 KICT 221725
TAFCNU
TAF
KCNU 221725Z 2218/2318 09005KT 3SM BR OVC004
      TEMPO 2219/2223 4SM -SHRA SCT004 OVC010
     FM222300 VRB04KT 4SM -DZ BR OVC005
      TEMPO 2308/2312 2SM BR
     FM231500 02005KT P6SM BKN010=

USA.gov is the U.S. government's official web portal to all federal, state and local government web resources and services.